Oberon — SKJF — position and weather

sailwx.info

Track history (hours):
 
Tides and Currents Weather Stations Pressure Air Temp Water Temp Dewpoint Dewpoint Depression Visibility Wind Speed Wind Dir Waves Ship Positions

Oberon

Last reported at 2014-Nov-21 05:32 UTC. Time now 2014-Nov-23 01:05 UTC.
Position N 40°23' W 071°58'.

Length 232 m; draft 8.7 m.

Type: Cargo ship. MMSI: 266283000.

Date/timePositionNaut miles runAvg speedWind from/ knotsBaromVisibWave heightAir tempDewpointWater temp
2014-Nov-21 05:32N 40°23' W 071°58'1818.4
2014-Nov-21 04:32N 40°23' W 072°22'5517.5
2014-Nov-21 01:22N 40°25' W 073°35'8 9.8
2014-Nov-21 00:31N 40°26' W 073°46'9 9.6
2014-Nov-20 23:33N 40°30' W 073°57'1111.1
2014-Nov-20 22:34N 40°39' W 074°05'3 2.5
2014-Nov-20 21:34N 40°40' W 074°08'2 1.5
2014-Nov-20 20:34N 40°42' W 074°09'0 0.0
2014-Nov-20 19:32N 40°42' W 074°09'0 0.0
2014-Nov-20 18:33N 40°42' W 074°09'0 0.0
2014-Nov-20 17:32N 40°42' W 074°09'0 0.0
2014-Nov-20 16:33N 40°42' W 074°09'0 0.0
2014-Nov-20 15:30N 40°42' W 074°09'0 0.0
2014-Nov-20 14:32N 40°42' W 074°09'0 0.0
2014-Nov-20 13:33N 40°42' W 074°09'0 0.0
2014-Nov-20 12:33N 40°42' W 074°09'0 0.0
2014-Nov-20 11:32N 40°42' W 074°09'1 0.6
2014-Nov-20 10:33N 40°41' W 074°08'5 4.9
2014-Nov-20 09:33N 40°38' W 074°03'1111.3
2014-Nov-20 08:33N 40°29' W 073°55'8 8.2
2014-Nov-20 07:33N 40°24' W 073°47'183 7.3
2014-Nov-19 06:27N 37°60' W 076°12'4118.2
2014-Nov-19 04:11N 38°40' W 076°25'1118.1
2014-Nov-19 03:33N 38°51' W 076°24'1615.5
2014-Nov-19 02:34N 39°07' W 076°24'1110.6
2014-Nov-19 01:34N 39°14' W 076°33'1 1.4
2014-Nov-19 00:34N 39°15' W 076°35'0 0.0
2014-Nov-18 23:32N 39°15' W 076°35'0 0.0
2014-Nov-18 22:31N 39°15' W 076°35'0 0.0
2014-Nov-18 21:31N 39°15' W 076°35'0 0.0
2014-Nov-18 20:31N 39°15' W 076°35'0 0.0
2014-Nov-18 19:31N 39°15' W 076°35'0 0.0
2014-Nov-18 18:31N 39°15' W 076°35'0 0.0
2014-Nov-18 17:31N 39°15' W 076°35'0 0.0
2014-Nov-18 16:31N 39°15' W 076°35'0 0.0
2014-Nov-18 15:28N 39°15' W 076°35'0 0.0
2014-Nov-18 14:31N 39°15' W 076°35'0 0.0
2014-Nov-18 13:32N 39°15' W 076°35'0 0.0
2014-Nov-18 12:32N 39°15' W 076°35'0 0.0
2014-Nov-18 11:31N 39°15' W 076°35'0 0.0
2014-Nov-18 10:32N 39°15' W 076°35'0 0.0
2014-Nov-18 09:31N 39°15' W 076°35'0 0.0
2014-Nov-18 08:32N 39°15' W 076°35'0 0.0
2014-Nov-18 07:31N 39°15' W 076°35'0 0.0
2014-Nov-18 06:32N 39°15' W 076°35'0 0.0
2014-Nov-18 05:31N 39°15' W 076°35'0 0.5
2014-Nov-18 04:33N 39°15' W 076°34'2 1.8
2014-Nov-18 03:32N 39°14' W 076°32'0 0.0
2014-Nov-18 02:32N 39°14' W 076°32'0 0.0
2014-Nov-18 01:32N 39°14' W 076°32'0 0.0
2014-Nov-18 00:32N 39°14' W 076°32'0 0.0
2014-Nov-17 23:32N 39°14' W 076°32'0 0.0
2014-Nov-17 22:32N 39°14' W 076°32'0 0.0
2014-Nov-17 21:32N 39°14' W 076°32'0 0.0
2014-Nov-17 20:32N 39°14' W 076°32'0 0.0
2014-Nov-17 19:32N 39°14' W 076°32'0 0.0
2014-Nov-17 18:32N 39°14' W 076°32'0 0.0
2014-Nov-17 17:32N 39°14' W 076°32'0 0.0
2014-Nov-17 16:32N 39°14' W 076°32'0 0.0
2014-Nov-17 15:32N 39°14' W 076°32'0 0.0
2014-Nov-17 14:32N 39°14' W 076°32'0 0.0
2014-Nov-17 13:32N 39°14' W 076°32'0 0.0
2014-Nov-17 12:32N 39°14' W 076°32'0 0.0
2014-Nov-17 11:32N 39°14' W 076°32'0 0.0
2014-Nov-17 10:32N 39°14' W 076°32'0 0.0
2014-Nov-17 09:32N 39°14' W 076°32'0 0.0
2014-Nov-17 08:32N 39°14' W 076°32'0 0.0
2014-Nov-17 07:33N 39°14' W 076°32'5 5.1
2014-Nov-17 06:33N 39°11' W 076°27'1312.4
2014-Nov-17 05:31N 38°58' W 076°23'1818.6
2014-Nov-17 04:33N 38°41' W 076°25'4418.7
2014-Nov-17 02:12N 37°58' W 076°11'425 8.2
2014-Nov-14 22:33N 32°02' W 080°55'10 9.8
2014-Nov-14 21:33N 32°05' W 081°06'0 0.0
2014-Nov-14 20:33N 32°05' W 081°06'0 0.0
2014-Nov-14 19:32N 32°05' W 081°06'0 0.0
2014-Nov-14 18:33N 32°05' W 081°06'0 0.0
2014-Nov-14 17:33N 32°05' W 081°06'0 0.0
2014-Nov-14 16:33N 32°05' W 081°06'0 0.0
2014-Nov-14 15:33N 32°05' W 081°06'0 0.0
2014-Nov-14 14:33N 32°05' W 081°06'0 0.0
2014-Nov-14 12:32N 32°05' W 081°06'0 0.0
2014-Nov-14 10:29N 32°05' W 081°06'0 0.0
2014-Nov-14 09:32N 32°05' W 081°06'0 0.0
2014-Nov-14 08:32N 32°05' W 081°06'0 0.0
2014-Nov-14 07:32N 32°05' W 081°06'2 2.5
2014-Nov-14 06:33N 32°07' W 081°08'4 3.9
2014-Nov-14 05:33N 32°05' W 081°04'  
Track history (hours):
 
Tides and Currents Weather Stations Pressure Air Temp Water Temp Dewpoint Dewpoint Depression Visibility Wind Speed Wind Dir Waves Ship Positions

Oberon

Last reported at 2014-Nov-21 05:32 UTC. Time now 2014-Nov-23 01:05 UTC.
Position N 40°23' W 071°58'.

Length 232 m; draft 8.7 m.

Type: Cargo ship. MMSI: 266283000.

Date/timePositionNaut miles runAvg speedWind from/ knotsBaromVisibWave heightAir tempDewpointWater temp
2014-Nov-21 05:32N 40°23' W 071°58'1818.4
2014-Nov-21 04:32N 40°23' W 072°22'5517.5
2014-Nov-21 01:22N 40°25' W 073°35'8 9.8
2014-Nov-21 00:31N 40°26' W 073°46'9 9.6
2014-Nov-20 23:33N 40°30' W 073°57'1111.1
2014-Nov-20 22:34N 40°39' W 074°05'3 2.5
2014-Nov-20 21:34N 40°40' W 074°08'2 1.5
2014-Nov-20 20:34N 40°42' W 074°09'0 0.0
2014-Nov-20 19:32N 40°42' W 074°09'0 0.0
2014-Nov-20 18:33N 40°42' W 074°09'0 0.0
2014-Nov-20 17:32N 40°42' W 074°09'0 0.0
2014-Nov-20 16:33N 40°42' W 074°09'0 0.0
2014-Nov-20 15:30N 40°42' W 074°09'0 0.0
2014-Nov-20 14:32N 40°42' W 074°09'0 0.0
2014-Nov-20 13:33N 40°42' W 074°09'0 0.0
2014-Nov-20 12:33N 40°42' W 074°09'0 0.0
2014-Nov-20 11:32N 40°42' W 074°09'1 0.6
2014-Nov-20 10:33N 40°41' W 074°08'5 4.9
2014-Nov-20 09:33N 40°38' W 074°03'1111.3
2014-Nov-20 08:33N 40°29' W 073°55'8 8.2
2014-Nov-20 07:33N 40°24' W 073°47'183 7.3
2014-Nov-19 06:27N 37°60' W 076°12'4118.2
2014-Nov-19 04:11N 38°40' W 076°25'1118.1
2014-Nov-19 03:33N 38°51' W 076°24'1615.5
2014-Nov-19 02:34N 39°07' W 076°24'1110.6
2014-Nov-19 01:34N 39°14' W 076°33'1 1.4
2014-Nov-19 00:34N 39°15' W 076°35'0 0.0
2014-Nov-18 23:32N 39°15' W 076°35'0 0.0
2014-Nov-18 22:31N 39°15' W 076°35'0 0.0
2014-Nov-18 21:31N 39°15' W 076°35'0 0.0
2014-Nov-18 20:31N 39°15' W 076°35'0 0.0
2014-Nov-18 19:31N 39°15' W 076°35'0 0.0
2014-Nov-18 18:31N 39°15' W 076°35'0 0.0
2014-Nov-18 17:31N 39°15' W 076°35'0 0.0
2014-Nov-18 16:31N 39°15' W 076°35'0 0.0
2014-Nov-18 15:28N 39°15' W 076°35'0 0.0
2014-Nov-18 14:31N 39°15' W 076°35'0 0.0
2014-Nov-18 13:32N 39°15' W 076°35'0 0.0
2014-Nov-18 12:32N 39°15' W 076°35'0 0.0
2014-Nov-18 11:31N 39°15' W 076°35'0 0.0
2014-Nov-18 10:32N 39°15' W 076°35'0 0.0
2014-Nov-18 09:31N 39°15' W 076°35'0 0.0
2014-Nov-18 08:32N 39°15' W 076°35'0 0.0
2014-Nov-18 07:31N 39°15' W 076°35'0 0.0
2014-Nov-18 06:32N 39°15' W 076°35'0 0.0
2014-Nov-18 05:31N 39°15' W 076°35'0 0.5
2014-Nov-18 04:33N 39°15' W 076°34'2 1.8
2014-Nov-18 03:32N 39°14' W 076°32'0 0.0
2014-Nov-18 02:32N 39°14' W 076°32'0 0.0
2014-Nov-18 01:32N 39°14' W 076°32'0 0.0
2014-Nov-18 00:32N 39°14' W 076°32'0 0.0
2014-Nov-17 23:32N 39°14' W 076°32'0 0.0
2014-Nov-17 22:32N 39°14' W 076°32'0 0.0
2014-Nov-17 21:32N 39°14' W 076°32'0 0.0
2014-Nov-17 20:32N 39°14' W 076°32'0 0.0
2014-Nov-17 19:32N 39°14' W 076°32'0 0.0
2014-Nov-17 18:32N 39°14' W 076°32'0 0.0
2014-Nov-17 17:32N 39°14' W 076°32'0 0.0
2014-Nov-17 16:32N 39°14' W 076°32'0 0.0
2014-Nov-17 15:32N 39°14' W 076°32'0 0.0
2014-Nov-17 14:32N 39°14' W 076°32'0 0.0
2014-Nov-17 13:32N 39°14' W 076°32'0 0.0
2014-Nov-17 12:32N 39°14' W 076°32'0 0.0
2014-Nov-17 11:32N 39°14' W 076°32'0 0.0
2014-Nov-17 10:32N 39°14' W 076°32'0 0.0
2014-Nov-17 09:32N 39°14' W 076°32'0 0.0
2014-Nov-17 08:32N 39°14' W 076°32'0 0.0
2014-Nov-17 07:33N 39°14' W 076°32'5 5.1
2014-Nov-17 06:33N 39°11' W 076°27'1312.4
2014-Nov-17 05:31N 38°58' W 076°23'1818.6
2014-Nov-17 04:33N 38°41' W 076°25'4418.7
2014-Nov-17 02:12N 37°58' W 076°11'425 8.2
2014-Nov-14 22:33N 32°02' W 080°55'10 9.8
2014-Nov-14 21:33N 32°05' W 081°06'0 0.0
2014-Nov-14 20:33N 32°05' W 081°06'0 0.0
2014-Nov-14 19:32N 32°05' W 081°06'0 0.0
2014-Nov-14 18:33N 32°05' W 081°06'0 0.0
2014-Nov-14 17:33N 32°05' W 081°06'0 0.0
2014-Nov-14 16:33N 32°05' W 081°06'0 0.0
2014-Nov-14 15:33N 32°05' W 081°06'0 0.0
2014-Nov-14 14:33N 32°05' W 081°06'0 0.0
2014-Nov-14 12:32N 32°05' W 081°06'0 0.0
2014-Nov-14 10:29N 32°05' W 081°06'0 0.0
2014-Nov-14 09:32N 32°05' W 081°06'0 0.0
2014-Nov-14 08:32N 32°05' W 081°06'0 0.0
2014-Nov-14 07:32N 32°05' W 081°06'2 2.5
2014-Nov-14 06:33N 32°07' W 081°08'4 3.9
2014-Nov-14 05:33N 32°05' W 081°04'  

Dump ship's entire track history